Time;durP1;ratioP1;P1;durP2;ratioP2;P2;SDS_P1;SDS_P2;PMS_P1;PMS_P2;Temp;Humidity;BMP_temperature;BMP_pressure;BME280_temperature;BME280_humidity;BME280_pressure;Samples;Min_cycle;Max_cycle;Signal;HPM_P1;HPM_P2
2023/08/11 00:00:23;;;;;;;8.47;6.43;;;15.30;83.60;;;;;;5007242;28;20374;-69
2023/08/11 00:02:52;;;;;;;8.07;7.10;;;15.30;83.60;;;;;;5030062;28;20279;-69
2023/08/11 00:05:20;;;;;;;8.53;6.70;;;15.20;83.70;;;;;;5013166;28;20287;-69
2023/08/11 00:07:50;;;;;;;9.73;6.73;;;15.20;83.90;;;;;;5026551;28;20310;-69
2023/08/11 00:10:19;;;;;;;9.17;6.80;;;15.10;83.80;;;;;;5027961;28;20292;-69
2023/08/11 00:12:46;;;;;;;7.63;6.60;;;15.10;83.90;;;;;;5005483;28;20847;-69
2023/08/11 00:15:12;;;;;;;12.23;8.03;;;15.10;84.00;;;;;;5026566;28;20390;-69
2023/08/11 00:17:39;;;;;;;9.80;7.47;;;15.00;84.20;;;;;;5030070;28;20506;-69
2023/08/11 00:20:06;;;;;;;9.70;7.77;;;15.00;84.50;;;;;;5030094;28;20051;-69
2023/08/11 00:22:32;;;;;;;11.77;7.47;;;15.00;84.60;;;;;;5029297;28;20414;-69
2023/08/11 00:24:58;;;;;;;9.03;7.57;;;15.00;84.70;;;;;;5029681;28;20279;-69
2023/08/11 00:27:24;;;;;;;10.40;8.30;;;15.00;85.00;;;;;;5029331;28;20376;-69
2023/08/11 00:29:50;;;;;;;12.90;9.40;;;15.00;85.50;;;;;;5028857;28;20338;-69
2023/08/11 00:32:15;;;;;;;11.53;8.77;;;15.00;85.90;;;;;;5025865;28;20048;-69
2023/08/11 00:34:41;;;;;;;11.07;8.40;;;15.00;85.80;;;;;;5032063;28;20396;-69
2023/08/11 00:37:07;;;;;;;10.53;8.97;;;15.00;85.90;;;;;;5031066;28;20068;-69
2023/08/11 00:39:33;;;;;;;12.90;8.73;;;15.00;85.80;;;;;;5009420;28;20033;-69
2023/08/11 00:41:59;;;;;;;18.80;9.20;;;15.00;86.10;;;;;;5002754;28;20276;-69
2023/08/11 00:44:26;;;;;;;12.23;9.17;;;15.00;86.40;;;;;;5030936;28;20774;-69
2023/08/11 00:46:52;;;;;;;12.47;9.40;;;15.00;86.20;;;;;;5023187;28;20073;-69
2023/08/11 00:49:18;;;;;;;13.17;10.53;;;15.00;86.50;;;;;;5005483;28;20388;-69
2023/08/11 00:51:44;;;;;;;15.37;10.27;;;15.00;86.80;;;;;;5022116;28;20049;-69
2023/08/11 00:54:11;;;;;;;14.30;10.10;;;15.00;86.90;;;;;;5014273;28;20294;-69
2023/08/11 00:56:44;;;;;;;14.27;10.37;;;15.00;86.80;;;;;;5024304;28;20390;-69
2023/08/11 00:59:14;;;;;;;12.40;10.20;;;14.90;86.70;;;;;;5017583;28;20284;-69
2023/08/11 01:01:40;;;;;;;14.37;10.67;;;14.90;86.90;;;;;;5022352;28;20284;-69
2023/08/11 01:04:07;;;;;;;13.07;10.90;;;14.90;87.40;;;;;;5022977;28;20823;-69
2023/08/11 01:06:57;;;;;;;14.43;11.60;;;14.90;87.40;;;;;;5029902;28;20118;-69
2023/08/11 01:09:32;;;;;;;14.73;11.83;;;14.90;87.40;;;;;;5012052;28;20307;-69
2023/08/11 01:12:39;;;;;;;15.93;11.95;;;14.90;88.00;;;;;;4994679;28;20291;-69
2023/08/11 01:15:23;;;;;;;14.90;11.67;;;14.90;87.70;;;;;;4956678;28;20057;-69
2023/08/11 01:17:50;;;;;;;13.23;11.10;;;14.80;87.70;;;;;;5004773;28;20303;-69
2023/08/11 01:20:17;;;;;;;14.37;11.93;;;14.80;87.80;;;;;;5010571;28;20292;-69
2023/08/11 01:22:55;;;;;;;19.00;13.13;;;14.80;88.00;;;;;;5010414;28;20292;-69
2023/08/11 01:25:21;;;;;;;18.00;12.93;;;14.80;88.00;;;;;;4993346;28;20411;-69
2023/08/11 01:27:56;;;;;;;18.63;14.37;;;14.70;88.00;;;;;;5010362;28;20323;-69
2023/08/11 01:30:23;;;;;;;19.13;14.10;;;14.70;88.10;;;;;;5010409;28;20308;-69
2023/08/11 01:32:51;;;;;;;18.50;13.63;;;14.70;88.50;;;;;;5010707;28;20323;-69
2023/08/11 01:35:18;;;;;;;18.60;13.90;;;14.70;88.40;;;;;;5010597;28;20296;-69
2023/08/11 01:37:44;;;;;;;17.33;14.03;;;14.70;88.40;;;;;;4994507;28;20342;-69
2023/08/11 01:40:10;;;;;;;16.20;13.53;;;14.60;88.70;;;;;;5010044;28;20296;-69
2023/08/11 01:42:39;;;;;;;17.30;13.87;;;14.60;88.70;;;;;;5009336;28;20351;-69
2023/08/11 01:45:07;;;;;;;18.73;15.10;;;14.60;88.80;;;;;;5010765;28;20163;-69
2023/08/11 01:47:34;;;;;;;20.87;15.10;;;14.60;88.80;;;;;;4989302;28;20371;-69
2023/08/11 01:50:02;;;;;;;17.53;15.30;;;14.60;89.20;;;;;;5009739;28;20291;-69
2023/08/11 01:52:31;;;;;;;20.77;15.93;;;14.60;89.50;;;;;;5007159;28;20372;-69
2023/08/11 01:54:57;;;;;;;19.80;16.33;;;14.60;89.50;;;;;;5008361;28;20399;-69
2023/08/11 01:57:23;;;;;;;22.70;17.50;;;14.70;89.70;;;;;;4985568;28;20730;-69
2023/08/11 01:59:48;;;;;;;20.53;16.77;;;14.70;89.70;;;;;;5010297;28;20042;-69
2023/08/11 02:02:14;;;;;;;20.60;17.97;;;14.70;90.40;;;;;;5010199;28;20053;-69
2023/08/11 02:04:40;;;;;;;22.23;18.00;;;14.80;89.90;;;;;;5010515;28;20041;-69
2023/08/11 02:07:05;;;;;;;21.07;17.67;;;14.80;90.00;;;;;;4994046;28;20072;-69
2023/08/11 02:09:31;;;;;;;25.10;18.83;;;14.80;90.10;;;;;;4993816;28;20520;-69
2023/08/11 02:11:57;;;;;;;22.90;18.40;;;14.80;90.00;;;;;;5009686;28;20060;-69
2023/08/11 02:14:22;;;;;;;22.83;18.03;;;14.80;90.60;;;;;;5010397;28;20029;-69
2023/08/11 02:16:48;;;;;;;21.97;18.87;;;14.80;90.90;;;;;;5007382;28;20121;-69
2023/08/11 02:19:14;;;;;;;22.23;18.03;;;14.80;90.60;;;;;;5010591;28;20460;-69
2023/08/11 02:21:40;;;;;;;22.93;19.17;;;14.80;90.60;;;;;;5009482;28;20304;-69
2023/08/11 02:24:06;;;;;;;23.43;17.57;;;14.80;90.60;;;;;;5010400;28;20481;-69
2023/08/11 02:26:32;;;;;;;22.23;18.53;;;14.90;90.70;;;;;;5009060;28;20563;-69
2023/08/11 02:28:58;;;;;;;21.00;18.60;;;14.90;90.70;;;;;;5010308;28;20042;-69
2023/08/11 02:31:25;;;;;;;22.43;18.63;;;14.80;90.80;;;;;;5009861;28;20304;-69
2023/08/11 02:33:51;;;;;;;21.50;19.00;;;14.80;90.90;;;;;;5009298;28;20048;-69
2023/08/11 02:36:19;;;;;;;25.57;19.40;;;14.80;90.90;;;;;;5010192;28;20703;-69
2023/08/11 02:38:44;;;;;;;21.73;18.43;;;14.80;91.10;;;;;;5010565;28;20042;-69
2023/08/11 02:41:11;;;;;;;26.53;17.97;;;14.80;91.40;;;;;;5005556;28;20652;-69
2023/08/11 02:43:37;;;;;;;23.60;18.03;;;14.70;91.40;;;;;;5013406;28;20049;-69
2023/08/11 02:46:05;;;;;;;25.30;18.70;;;14.70;91.40;;;;;;5005902;28;20284;-69
2023/08/11 02:48:33;;;;;;;20.60;18.37;;;14.70;91.20;;;;;;5006717;28;20081;-69
2023/08/11 02:51:03;;;;;;;27.10;18.93;;;14.70;91.80;;;;;;5005661;28;20276;-69
2023/08/11 02:53:29;;;;;;;21.63;17.17;;;14.60;91.80;;;;;;5011918;28;20288;-69
2023/08/11 02:55:54;;;;;;;22.80;18.17;;;14.60;91.70;;;;;;5010022;28;20652;-69
2023/08/11 02:58:20;;;;;;;19.73;17.63;;;14.60;91.80;;;;;;5008538;28;20120;-69
2023/08/11 03:00:47;;;;;;;19.37;17.27;;;14.60;91.80;;;;;;5011251;28;20040;-69
2023/08/11 03:03:13;;;;;;;19.93;16.97;;;14.60;91.90;;;;;;4995817;28;20052;-69
2023/08/11 03:05:38;;;;;;;20.23;17.13;;;14.60;92.10;;;;;;5010991;28;20438;-69
2023/08/11 03:08:04;;;;;;;18.87;16.87;;;14.60;92.30;;;;;;5016005;28;20404;-69
2023/08/11 03:10:30;;;;;;;20.43;17.17;;;14.60;92.40;;;;;;5027127;28;20053;-69
2023/08/11 03:12:56;;;;;;;21.27;16.83;;;14.60;92.30;;;;;;5013783;28;20072;-69
2023/08/11 03:15:23;;;;;;;18.80;16.80;;;14.60;92.30;;;;;;5025166;28;21158;-69
2023/08/11 03:17:49;;;;;;;20.20;16.87;;;14.60;92.20;;;;;;5028917;28;20137;-69
2023/08/11 03:20:15;;;;;;;22.53;17.40;;;14.60;92.50;;;;;;5021601;28;20310;-69
2023/08/11 03:22:43;;;;;;;21.60;17.40;;;14.60;92.20;;;;;;5009077;28;20586;-69
2023/08/11 03:25:10;;;;;;;20.23;16.67;;;14.60;92.20;;;;;;5012559;28;20040;-69
2023/08/11 03:27:38;;;;;;;22.10;16.80;;;14.60;92.30;;;;;;5026761;28;20319;-69
2023/08/11 03:30:06;;;;;;;22.40;17.90;;;14.60;92.40;;;;;;5031140;28;20291;-69
2023/08/11 03:32:31;;;;;;;20.67;17.23;;;14.60;93.10;;;;;;5020645;28;20359;-69
2023/08/11 03:34:57;;;;;;;22.63;17.73;;;14.60;93.00;;;;;;5027539;28;20729;-69
2023/08/11 03:37:22;;;;;;;20.80;17.37;;;14.60;92.80;;;;;;5014791;28;20045;-70
2023/08/11 03:39:48;;;;;;;18.97;16.90;;;14.60;93.10;;;;;;5025195;28;20037;-69
2023/08/11 03:42:14;;;;;;;20.10;17.67;;;14.60;92.90;;;;;;5025133;28;20051;-69
2023/08/11 03:44:39;;;;;;;19.33;17.23;;;14.60;93.20;;;;;;5006854;28;20140;-69
2023/08/11 03:47:05;;;;;;;20.07;17.37;;;14.60;93.00;;;;;;5029023;28;20049;-70
2023/08/11 03:49:31;;;;;;;23.60;17.73;;;14.60;93.00;;;;;;5017348;28;20496;-69
2023/08/11 03:51:57;;;;;;;19.10;16.33;;;14.60;93.30;;;;;;5029253;28;20098;-69
2023/08/11 03:54:23;;;;;;;19.50;16.73;;;14.60;93.20;;;;;;5031087;28;20834;-69
2023/08/11 03:56:48;;;;;;;19.83;16.40;;;14.50;93.10;;;;;;5031408;28;20041;-69
2023/08/11 03:59:14;;;;;;;19.77;16.83;;;14.50;93.40;;;;;;5030606;28;20048;-69
2023/08/11 04:01:40;;;;;;;20.10;17.30;;;14.50;93.40;;;;;;5031441;28;20025;-69
2023/08/11 04:04:06;;;;;;;21.73;16.37;;;14.50;93.70;;;;;;5030083;28;20222;-69
2023/08/11 04:06:32;;;;;;;20.63;16.60;;;14.50;93.90;;;;;;5022884;28;20059;-69
2023/08/11 04:08:59;;;;;;;22.87;17.10;;;14.50;93.70;;;;;;5028839;28;20347;-70
2023/08/11 04:11:25;;;;;;;21.90;17.33;;;14.50;93.60;;;;;;5019902;28;20709;-70
2023/08/11 04:13:51;;;;;;;19.97;17.50;;;14.50;93.70;;;;;;5031221;28;20280;-69
2023/08/11 04:16:17;;;;;;;19.70;16.80;;;14.50;93.80;;;;;;5022998;28;20296;-69
2023/08/11 04:18:43;;;;;;;17.83;15.20;;;14.50;94.50;;;;;;5024115;28;20041;-69
2023/08/11 04:21:09;;;;;;;17.30;15.50;;;14.50;94.70;;;;;;5041285;28;20276;-69
2023/08/11 04:23:34;;;;;;;16.83;15.03;;;14.50;94.20;;;;;;5009682;28;20638;-69
2023/08/11 04:26:00;;;;;;;17.53;14.97;;;14.60;94.30;;;;;;5030001;28;20041;-70
2023/08/11 04:28:26;;;;;;;17.90;14.63;;;14.60;94.20;;;;;;5026166;28;20036;-69
2023/08/11 04:30:52;;;;;;;17.27;15.20;;;14.60;94.20;;;;;;5021887;28;20037;-69
2023/08/11 04:33:17;;;;;;;17.60;14.73;;;14.60;94.20;;;;;;5026012;28;20108;-69
2023/08/11 04:35:43;;;;;;;16.73;14.27;;;14.60;94.20;;;;;;5018146;28;20041;-70
2023/08/11 04:38:09;;;;;;;17.30;15.03;;;14.70;94.40;;;;;;5026085;28;20278;-70
2023/08/11 04:40:35;;;;;;;17.07;13.53;;;14.70;94.90;;;;;;5034834;28;20451;-70
2023/08/11 04:43:01;;;;;;;16.40;14.17;;;14.70;94.40;;;;;;5030193;28;20053;-70
2023/08/11 04:45:27;;;;;;;15.60;13.67;;;14.80;94.60;;;;;;5027278;28;20885;-70
2023/08/11 04:47:53;;;;;;;17.83;13.10;;;14.80;94.60;;;;;;5014445;28;20131;-70
2023/08/11 04:50:19;;;;;;;16.80;13.37;;;14.90;94.40;;;;;;5016615;28;20736;-70
2023/08/11 04:52:44;;;;;;;16.13;12.33;;;14.90;94.20;;;;;;5035070;28;20045;-71
2023/08/11 04:55:10;;;;;;;15.63;13.07;;;15.00;94.00;;;;;;5026642;28;20399;-71
2023/08/11 04:57:36;;;;;;;17.23;13.53;;;15.00;94.00;;;;;;5027961;28;20045;-71
2023/08/11 05:00:06;;;;;;;14.00;12.50;;;15.10;93.80;;;;;;5027907;28;20034;-71
2023/08/11 05:02:32;;;;;;;14.27;12.70;;;15.20;93.90;;;;;;5027101;28;20033;-71
2023/08/11 05:04:58;;;;;;;15.37;12.17;;;15.20;93.70;;;;;;5019351;28;20732;-71
2023/08/11 05:07:24;;;;;;;14.30;11.93;;;15.20;93.70;;;;;;5016786;28;20301;-71
2023/08/11 05:09:50;;;;;;;16.53;12.70;;;15.30;93.80;;;;;;5011722;28;20049;-70
2023/08/11 05:12:16;;;;;;;15.57;12.63;;;15.40;93.80;;;;;;5008665;28;20037;-70
2023/08/11 05:14:42;;;;;;;14.00;12.57;;;15.40;93.70;;;;;;5028362;28;20773;-70
2023/08/11 05:17:09;;;;;;;14.07;12.27;;;15.50;93.60;;;;;;5006118;28;20037;-70
2023/08/11 05:19:36;;;;;;;15.67;11.87;;;15.60;93.60;;;;;;5010368;28;20286;-70
2023/08/11 05:22:02;;;;;;;14.13;11.83;;;15.60;93.60;;;;;;5017430;28;20296;-70
2023/08/11 05:24:28;;;;;;;14.30;11.80;;;15.70;93.30;;;;;;5003322;28;20879;-70
2023/08/11 05:26:54;;;;;;;14.23;12.33;;;15.80;93.30;;;;;;5027083;28;20286;-70
2023/08/11 05:29:19;;;;;;;15.23;12.23;;;15.90;93.10;;;;;;5012318;28;20580;-71
2023/08/11 05:31:45;;;;;;;13.33;11.50;;;15.90;93.20;;;;;;5028782;28;20071;-71
2023/08/11 05:34:11;;;;;;;13.80;12.40;;;16.00;93.10;;;;;;5023866;28;20424;-71
2023/08/11 05:36:36;;;;;;;16.60;12.13;;;16.10;92.90;;;;;;5006049;28;20053;-69
2023/08/11 05:39:03;;;;;;;16.40;12.20;;;16.10;92.90;;;;;;5022237;28;20036;-69
2023/08/11 05:41:29;;;;;;;14.50;12.13;;;16.20;93.00;;;;;;5012231;28;20068;-69
2023/08/11 05:43:54;;;;;;;15.73;12.50;;;16.30;92.80;;;;;;5022071;28;20684;-69
2023/08/11 05:46:20;;;;;;;14.87;12.23;;;16.40;92.80;;;;;;5025158;28;20132;-69
2023/08/11 05:48:48;;;;;;;15.70;12.93;;;16.50;92.80;;;;;;5021600;28;20048;-70
2023/08/11 05:51:15;;;;;;;17.00;12.67;;;16.60;92.80;;;;;;5010899;28;20049;-69
2023/08/11 05:53:40;;;;;;;14.13;11.70;;;16.60;92.50;;;;;;5028025;28;20337;-69
2023/08/11 05:56:06;;;;;;;13.93;12.13;;;16.70;92.40;;;;;;5024958;28;20873;-69
2023/08/11 05:58:32;;;;;;;13.17;11.77;;;16.80;92.30;;;;;;5028650;28;20040;-69
2023/08/11 06:00:57;;;;;;;16.60;12.67;;;16.90;92.30;;;;;;5026363;28;20037;-69
2023/08/11 06:03:29;;;;;;;13.93;11.90;;;17.00;92.30;;;;;;5024024;28;20680;-69
2023/08/11 06:05:59;;;;;;;14.60;11.70;;;17.10;92.30;;;;;;5027328;28;20041;-69
2023/08/11 06:08:25;;;;;;;16.33;12.10;;;17.20;92.20;;;;;;5025168;28;20307;-69
2023/08/11 06:10:51;;;;;;;14.83;11.77;;;17.30;92.10;;;;;;5025196;28;20287;-69
2023/08/11 06:13:16;;;;;;;13.90;12.33;;;17.40;92.10;;;;;;5013590;28;20048;-69
2023/08/11 06:15:42;;;;;;;13.27;11.33;;;17.50;91.70;;;;;;5027523;28;20776;-69
2023/08/11 06:18:08;;;;;;;13.27;11.87;;;17.60;91.40;;;;;;5011930;28;20052;-69
2023/08/11 06:20:33;;;;;;;14.90;11.33;;;17.70;91.80;;;;;;5028521;28;20061;-70
2023/08/11 06:22:59;;;;;;;12.83;11.13;;;17.90;92.50;;;;;;5028539;28;20120;-69
2023/08/11 06:25:25;;;;;;;15.87;11.70;;;18.30;92.50;;;;;;5028081;28;20045;-70
2023/08/11 06:27:51;;;;;;;13.50;11.30;;;19.00;91.30;;;;;;5028438;28;20041;-70
2023/08/11 06:30:16;;;;;;;13.87;11.27;;;19.80;89.10;;;;;;5012188;28;20060;-69
2023/08/11 06:32:45;;;;;;;12.73;10.57;;;20.70;85.10;;;;;;5029072;28;20041;-69
2023/08/11 06:35:11;;;;;;;15.40;10.67;;;21.40;80.10;;;;;;5009806;28;20129;-69
2023/08/11 06:37:37;;;;;;;14.13;11.10;;;22.00;78.90;;;;;;5028591;28;20045;-69
2023/08/11 06:40:03;;;;;;;12.37;10.10;;;22.40;74.70;;;;;;5028468;28;20088;-70
2023/08/11 06:42:28;;;;;;;11.60;9.13;;;22.80;74.00;;;;;;5027116;28;20133;-69
2023/08/11 06:44:54;;;;;;;14.30;9.53;;;23.20;73.00;;;;;;5027214;28;20492;-69
2023/08/11 06:47:20;;;;;;;12.03;10.10;;;23.60;71.50;;;;;;5028654;28;20041;-70
2023/08/11 06:49:46;;;;;;;12.43;8.63;;;23.60;68.20;;;;;;5010538;28;20468;-70
2023/08/11 06:52:11;;;;;;;11.63;9.03;;;23.60;68.20;;;;;;5025797;28;20038;-70
2023/08/11 06:54:38;;;;;;;10.93;9.00;;;23.60;67.60;;;;;;5027468;28;20037;-70
2023/08/11 06:57:04;;;;;;;13.40;9.23;;;23.50;67.40;;;;;;5027927;28;20489;-70
2023/08/11 06:59:30;;;;;;;9.60;8.50;;;23.50;67.70;;;;;;5022742;28;20042;-71
2023/08/11 07:01:56;;;;;;;10.40;8.80;;;23.40;67.50;;;;;;5029320;28;20048;-71
2023/08/11 07:04:22;;;;;;;11.20;8.50;;;22.90;68.50;;;;;;5029349;28;20148;-72
2023/08/11 07:06:50;;;;;;;11.10;8.00;;;22.40;70.10;;;;;;5027944;28;20504;-71
2023/08/11 07:09:16;;;;;;;11.50;7.27;;;21.80;71.30;;;;;;5035145;28;20080;-72
2023/08/11 07:11:42;;;;;;;9.50;8.17;;;21.40;73.00;;;;;;5018615;28;20489;-72
2023/08/11 07:14:08;;;;;;;10.63;7.57;;;21.10;74.10;;;;;;5018490;28;20124;-72
2023/08/11 07:16:34;;;;;;;10.37;7.73;;;21.00;75.10;;;;;;5030803;28;20513;-71
2023/08/11 07:19:00;;;;;;;11.87;7.60;;;20.90;75.50;;;;;;5015601;28;20043;-72
2023/08/11 07:21:25;;;;;;;8.93;6.40;;;20.80;76.00;;;;;;5017950;28;20088;-71
2023/08/11 07:23:51;;;;;;;9.57;7.00;;;20.80;76.30;;;;;;5034391;28;20091;-73
2023/08/11 07:26:17;;;;;;;9.47;6.63;;;20.90;76.60;;;;;;5034908;28;20141;-72
2023/08/11 07:28:43;;;;;;;9.93;6.77;;;20.90;77.00;;;;;;5034463;28;20110;-71
2023/08/11 07:31:09;;;;;;;9.07;6.60;;;21.00;76.40;;;;;;5034270;28;20044;-70
2023/08/11 07:33:35;;;;;;;12.13;7.90;;;21.00;75.90;;;;;;5016105;28;20040;-71
2023/08/11 07:36:02;;;;;;;8.90;7.27;;;21.10;76.30;;;;;;5033750;28;20100;-71
2023/08/11 07:38:28;;;;;;;12.87;8.23;;;21.20;75.80;;;;;;5016777;28;20041;-72
2023/08/11 07:40:54;;;;;;;10.90;7.63;;;21.30;75.80;;;;;;5034353;28;20258;-72
2023/08/11 07:43:20;;;;;;;10.67;7.63;;;21.30;75.20;;;;;;5026049;28;20552;-71
2023/08/11 07:45:46;;;;;;;9.47;7.17;;;21.40;75.00;;;;;;5033927;28;20537;-72
2023/08/11 07:48:11;;;;;;;9.90;6.33;;;21.50;75.30;;;;;;5027461;28;20409;-72
2023/08/11 07:50:38;;;;;;;10.33;7.07;;;21.60;75.30;;;;;;5033571;28;20049;-72
2023/08/11 07:53:04;;;;;;;11.13;7.30;;;21.70;75.10;;;;;;5006849;28;20045;-71
2023/08/11 07:55:30;;;;;;;11.47;7.10;;;21.80;74.80;;;;;;5030055;28;20037;-71
2023/08/11 07:57:55;;;;;;;13.00;8.00;;;22.00;75.10;;;;;;5033407;28;20405;-72
2023/08/11 08:00:24;;;;;;;14.10;7.90;;;22.10;74.30;;;;;;5032793;28;20036;-71
2023/08/11 08:02:54;;;;;;;10.70;7.00;;;22.20;74.00;;;;;;5032433;28;20068;-71
2023/08/11 08:05:20;;;;;;;9.83;6.90;;;22.20;72.90;;;;;;5034465;28;20492;-71
2023/08/11 08:07:46;;;;;;;10.63;7.00;;;22.30;72.30;;;;;;5017427;28;20127;-71
2023/08/11 08:10:14;;;;;;;12.90;6.83;;;22.40;72.00;;;;;;5033795;28;20057;-71
2023/08/11 08:12:42;;;;;;;9.87;6.60;;;22.40;71.90;;;;;;5033581;28;20377;-72
2023/08/11 08:15:10;;;;;;;7.47;6.23;;;22.50;71.30;;;;;;5032846;28;20180;-72
2023/08/11 08:17:36;;;;;;;8.73;5.67;;;22.60;70.90;;;;;;5034044;28;20045;-72
2023/08/11 08:20:13;;;;;;;12.57;6.10;;;22.70;70.50;;;;;;5009040;28;20054;-72
2023/08/11 08:22:40;;;;;;;10.40;5.70;;;22.80;69.60;;;;;;5025305;28;20041;-72
2023/08/11 08:25:06;;;;;;;13.97;6.20;;;22.90;69.80;;;;;;5016887;28;20068;-71
2023/08/11 08:27:33;;;;;;;9.07;5.80;;;23.00;69.40;;;;;;5032713;28;20037;-72
2023/08/11 08:29:59;;;;;;;8.83;5.17;;;23.00;68.80;;;;;;5017063;28;20037;-73
2023/08/11 08:32:25;;;;;;;7.93;5.30;;;23.20;69.40;;;;;;5022848;28;20072;-72
2023/08/11 08:34:54;;;;;;;10.63;5.73;;;23.30;67.60;;;;;;5032629;28;20033;-71
2023/08/11 08:37:19;;;;;;;8.93;6.00;;;23.40;68.20;;;;;;5016586;28;20079;-72
2023/08/11 08:39:48;;;;;;;8.30;5.00;;;23.50;67.50;;;;;;5033835;28;20300;-72
2023/08/11 08:42:19;;;;;;;8.67;5.60;;;23.60;66.80;;;;;;5031168;28;20037;-73
2023/08/11 08:44:48;;;;;;;12.57;5.23;;;23.70;66.20;;;;;;5017372;28;20075;-71
2023/08/11 08:47:15;;;;;;;8.97;5.40;;;23.80;66.90;;;;;;5026055;28;20709;-73
2023/08/11 08:49:43;;;;;;;6.60;4.63;;;24.00;66.50;;;;;;5025030;28;20080;-72
2023/08/11 08:52:09;;;;;;;11.93;5.27;;;24.20;65.70;;;;;;5013785;28;20404;-73
2023/08/11 08:54:35;;;;;;;9.27;4.90;;;24.40;64.00;;;;;;5031275;28;20059;-70
2023/08/11 08:57:04;;;;;;;6.83;4.90;;;24.50;64.20;;;;;;5031025;28;20048;-72
2023/08/11 08:59:30;;;;;;;6.10;4.60;;;24.60;65.00;;;;;;5028292;28;20060;-70
2023/08/11 09:01:56;;;;;;;7.53;4.57;;;24.70;64.00;;;;;;5021878;28;20037;-70
2023/08/11 09:04:22;;;;;;;9.70;5.10;;;24.80;63.90;;;;;;5009861;28;20032;-70
2023/08/11 09:06:50;;;;;;;9.90;5.50;;;24.90;64.20;;;;;;5024569;28;20102;-70
2023/08/11 09:09:16;;;;;;;8.53;4.23;;;25.00;62.90;;;;;;5024909;28;20059;-70
2023/08/11 09:11:43;;;;;;;7.90;4.53;;;25.10;62.90;;;;;;5008807;28;20053;-70
2023/08/11 09:14:09;;;;;;;8.97;5.07;;;25.20;63.10;;;;;;5028039;28;20375;-70
2023/08/11 09:16:38;;;;;;;10.20;5.20;;;25.30;61.70;;;;;;5029355;28;20540;-70
2023/08/11 09:19:08;;;;;;;7.17;4.43;;;25.40;61.40;;;;;;5025677;28;20497;-70
2023/08/11 09:21:34;;;;;;;8.80;4.80;;;25.60;62.00;;;;;;5017811;28;20055;-70
2023/08/11 09:24:00;;;;;;;6.37;4.60;;;25.60;62.60;;;;;;5017530;28;20488;-70
2023/08/11 09:26:26;;;;;;;8.03;4.50;;;25.70;62.50;;;;;;5001074;28;20045;-70
2023/08/11 09:28:53;;;;;;;7.27;4.60;;;25.80;62.20;;;;;;5027768;28;20047;-70
2023/08/11 09:31:24;;;;;;;8.53;4.60;;;26.00;62.20;;;;;;5029254;28;20045;-71
2023/08/11 09:33:50;;;;;;;6.30;4.10;;;26.20;61.70;;;;;;5013501;28;20037;-70
2023/08/11 09:36:17;;;;;;;8.87;5.43;;;26.50;61.40;;;;;;5011324;28;20044;-70
2023/08/11 09:38:44;;;;;;;6.57;4.03;;;26.60;60.50;;;;;;5023793;28;20071;-70
2023/08/11 09:41:13;;;;;;;8.47;4.47;;;26.70;60.20;;;;;;5012600;28;20044;-70
2023/08/11 09:43:39;;;;;;;6.80;4.60;;;26.80;59.50;;;;;;5028199;28;20033;-70
2023/08/11 09:46:04;;;;;;;7.57;4.63;;;26.80;59.20;;;;;;5027957;28;20041;-70
2023/08/11 09:48:31;;;;;;;6.17;4.63;;;26.80;58.80;;;;;;5026438;28;20080;-70
2023/08/11 09:50:58;;;;;;;8.03;4.10;;;26.70;58.80;;;;;;5027733;28;20037;-70
2023/08/11 09:53:24;;;;;;;8.77;4.07;;;26.70;59.90;;;;;;5018748;28;20057;-70
2023/08/11 09:55:52;;;;;;;9.03;4.60;;;26.80;60.80;;;;;;5025719;28;20044;-70
2023/08/11 09:58:19;;;;;;;9.23;4.60;;;26.90;59.70;;;;;;5024968;28;20444;-70
2023/08/11 10:00:47;;;;;;;6.33;4.93;;;27.00;59.60;;;;;;5009733;28;20057;-70
2023/08/11 10:03:22;;;;;;;9.63;4.33;;;27.10;58.40;;;;;;5012287;28;20045;-70
2023/08/11 10:05:50;;;;;;;8.10;3.87;;;27.00;57.90;;;;;;5027605;28;20103;-70
2023/08/11 10:08:21;;;;;;;8.07;4.27;;;26.90;57.70;;;;;;5022094;28;20081;-70
2023/08/11 10:10:47;;;;;;;6.13;4.00;;;27.00;57.80;;;;;;5022341;28;20040;-70
2023/08/11 10:13:18;;;;;;;6.57;3.97;;;27.10;58.20;;;;;;5011616;28;20047;-71
2023/08/11 10:15:45;;;;;;;6.27;4.10;;;27.10;57.00;;;;;;5023286;28;20052;-71
2023/08/11 10:18:11;;;;;;;7.93;4.00;;;27.20;57.00;;;;;;5025961;28;20557;-71
2023/08/11 10:20:37;;;;;;;7.07;4.30;;;27.20;56.90;;;;;;5024891;28;20046;-71
2023/08/11 10:23:04;;;;;;;5.60;3.80;;;27.40;56.70;;;;;;5021282;28;20112;-71
2023/08/11 10:25:30;;;;;;;7.90;4.60;;;27.50;56.50;;;;;;5023477;28;20148;-71
2023/08/11 10:27:58;;;;;;;7.63;4.40;;;27.70;56.20;;;;;;5028493;28;20516;-71
2023/08/11 10:30:25;;;;;;;6.43;3.93;;;27.80;56.30;;;;;;5001661;28;20574;-71
2023/08/11 10:32:56;;;;;;;7.77;4.07;;;27.90;55.40;;;;;;5024558;28;20091;-71
2023/08/11 10:35:26;;;;;;;8.70;4.20;;;27.90;55.40;;;;;;5025024;28;20076;-71
2023/08/11 10:37:59;;;;;;;7.70;4.47;;;27.80;55.50;;;;;;5025091;28;20041;-71
2023/08/11 10:40:34;;;;;;;7.33;4.20;;;27.80;55.30;;;;;;5023292;28;20084;-71
2023/08/11 10:43:03;;;;;;;6.03;3.70;;;27.80;55.20;;;;;;5011194;28;20045;-71
2023/08/11 10:45:32;;;;;;;5.53;3.80;;;27.70;55.40;;;;;;5025505;28;20048;-71
2023/08/11 10:47:59;;;;;;;7.03;3.63;;;27.80;55.10;;;;;;5020912;28;20077;-71
2023/08/11 10:50:26;;;;;;;6.07;3.80;;;27.80;56.20;;;;;;5021623;28;20469;-71
2023/08/11 10:53:10;;;;;;;8.10;4.00;;;27.90;56.40;;;;;;5026389;28;20083;-71
2023/08/11 10:55:36;;;;;;;6.33;3.90;;;27.90;55.20;;;;;;5028764;28;20048;-71
2023/08/11 10:58:18;;;;;;;6.27;3.80;;;27.80;56.00;;;;;;5013526;28;20033;-71
2023/08/11 11:00:44;;;;;;;5.47;3.83;;;27.80;55.20;;;;;;5029446;28;20566;-71
2023/08/11 11:03:11;;;;;;;8.03;3.93;;;27.80;56.40;;;;;;5030625;28;20086;-71
2023/08/11 11:05:40;;;;;;;5.67;2.90;;;27.90;56.20;;;;;;5026480;28;20033;-71
2023/08/11 11:08:06;;;;;;;6.87;3.73;;;28.00;56.00;;;;;;5033132;28;20053;-71
2023/08/11 11:10:32;;;;;;;5.30;3.67;;;28.20;56.60;;;;;;5032955;28;20041;-71
2023/08/11 11:12:57;;;;;;;7.40;4.20;;;28.30;56.10;;;;;;5004863;28;20389;-71
2023/08/11 11:15:26;;;;;;;9.57;3.57;;;28.50;55.40;;;;;;5028415;28;20041;-71
2023/08/11 11:17:52;;;;;;;9.13;3.67;;;28.70;55.20;;;;;;5033273;28;20056;-71
2023/08/11 11:20:18;;;;;;;5.17;3.67;;;28.90;54.60;;;;;;5030500;28;20144;-71
2023/08/11 11:22:50;;;;;;;7.40;3.93;;;29.00;54.20;;;;;;5030955;28;20033;-71
2023/08/11 11:25:20;;;;;;;6.77;4.13;;;29.10;54.70;;;;;;5030559;28;20041;-71
2023/08/11 11:27:47;;;;;;;7.57;4.00;;;29.00;54.80;;;;;;5030822;28;20041;-72
2023/08/11 11:30:13;;;;;;;6.83;3.90;;;28.90;54.60;;;;;;5020852;28;20048;-72
2023/08/11 11:32:40;;;;;;;5.73;3.53;;;28.90;55.50;;;;;;5017334;28;20049;-73
2023/08/11 11:35:08;;;;;;;7.03;3.87;;;28.90;55.20;;;;;;5012617;28;20041;-73
2023/08/11 11:37:34;;;;;;;5.30;3.10;;;28.80;54.60;;;;;;5030278;28;20044;-74
2023/08/11 11:40:04;;;;;;;5.97;3.90;;;28.80;54.80;;;;;;5032138;28;20091;-71
2023/08/11 11:42:30;;;;;;;5.97;2.90;;;28.70;54.80;;;;;;5010790;28;20114;-73
2023/08/11 11:44:57;;;;;;;7.03;4.17;;;28.70;54.20;;;;;;5047890;28;20166;-73
2023/08/11 11:47:23;;;;;;;7.10;3.50;;;28.70;54.70;;;;;;5033247;28;20127;-73
2023/08/11 11:49:56;;;;;;;6.03;4.20;;;28.60;55.10;;;;;;5009738;28;20178;-71
2023/08/11 11:52:22;;;;;;;5.87;3.97;;;28.80;55.20;;;;;;5031259;28;20064;-73
2023/08/11 11:54:52;;;;;;;4.53;3.57;;;28.90;55.00;;;;;;5028082;28;20065;-74
2023/08/11 11:57:18;;;;;;;7.23;3.70;;;28.90;54.60;;;;;;5029573;28;20103;-73
2023/08/11 11:59:48;;;;;;;5.37;3.90;;;28.90;54.90;;;;;;5029014;28;20037;-73
2023/08/11 12:02:15;;;;;;;6.17;3.70;;;28.90;54.90;;;;;;5015288;28;20459;-72
2023/08/11 12:04:46;;;;;;;4.40;3.50;;;28.90;54.60;;;;;;5034575;28;20124;-73
2023/08/11 12:07:29;;;;;;;5.80;3.70;;;28.90;53.90;;;;;;5028684;28;20525;-74
2023/08/11 12:09:55;;;;;;;8.93;3.97;;;28.90;54.60;;;;;;5008289;28;20068;-73
2023/08/11 12:12:24;;;;;;;5.57;3.77;;;28.90;55.80;;;;;;5028808;28;20061;-72
2023/08/11 12:14:50;;;;;;;8.60;3.77;;;28.80;54.90;;;;;;5013011;28;20045;-73
2023/08/11 12:17:16;;;;;;;6.47;3.13;;;28.60;55.00;;;;;;5010892;28;20097;-72
2023/08/11 12:19:45;;;;;;;4.93;2.50;;;28.60;55.00;;;;;;5006480;28;20099;-73
2023/08/11 12:22:11;;;;;;;5.33;3.30;;;28.70;54.30;;;;;;5012099;28;21360;-73
2023/08/11 12:24:37;;;;;;;8.30;4.13;;;28.80;54.70;;;;;;5028382;28;20128;-73
2023/08/11 12:27:03;;;;;;;7.33;3.33;;;28.80;54.40;;;;;;5012307;28;20068;-73
2023/08/11 12:29:29;;;;;;;6.30;3.97;;;28.60;55.00;;;;;;5030824;28;20124;-73
2023/08/11 12:31:55;;;;;;;6.60;4.43;;;28.50;55.00;;;;;;5029913;28;20561;-72
2023/08/11 12:34:21;;;;;;;8.23;4.23;;;28.30;54.90;;;;;;5030291;28;20052;-73